Time;durP1;ratioP1;P1;durP2;ratioP2;P2;SDS_P1;SDS_P2;PMS_P1;PMS_P2;Temp;Humidity;BMP_temperature;BMP_pressure;BME280_temperature;BME280_humidity;BME280_pressure;Samples;Min_cycle;Max_cycle;Signal;HPM_P1;HPM_P2
2022/01/30 00:00:51;;;;;;;5.45;2.75;;;6.50;99.90;;;;;;4989310;28;20042;-67
2022/01/30 00:03:19;;;;;;;4.88;3.05;;;6.50;99.90;;;;;;4989019;28;20097;-66
2022/01/30 00:05:46;;;;;;;5.13;3.30;;;6.50;99.90;;;;;;4988542;28;20096;-65
2022/01/30 00:08:14;;;;;;;7.07;3.25;;;6.40;99.90;;;;;;4988106;28;20498;-66
2022/01/30 00:10:43;;;;;;;5.03;3.20;;;6.40;99.90;;;;;;4987403;28;20034;-65
2022/01/30 00:13:14;;;;;;;6.35;3.08;;;6.40;99.90;;;;;;4988234;28;20116;-66
2022/01/30 00:15:47;;;;;;;5.32;3.35;;;6.30;99.90;;;;;;4988335;28;20038;-65
2022/01/30 00:20:46;;;;;;;5.45;3.08;;;6.30;99.90;;;;;;4983921;28;20505;-66
2022/01/30 00:23:24;;;;;;;4.90;2.90;;;6.20;99.90;;;;;;4981541;28;20109;-66
2022/01/30 00:25:54;;;;;;;5.13;3.05;;;6.20;99.90;;;;;;4985998;28;20364;-66
2022/01/30 00:28:24;;;;;;;4.60;2.78;;;6.10;99.90;;;;;;4990652;28;20153;-65
2022/01/30 00:30:54;;;;;;;4.63;2.85;;;6.20;99.90;;;;;;4989160;28;20052;-66
2022/01/30 00:33:21;;;;;;;4.50;2.60;;;6.10;99.90;;;;;;4988923;28;20043;-66
2022/01/30 00:35:50;;;;;;;5.05;2.88;;;6.10;99.90;;;;;;4988488;28;20046;-66
2022/01/30 00:38:22;;;;;;;3.80;2.22;;;6.10;99.90;;;;;;4988849;28;20065;-64
2022/01/30 00:40:51;;;;;;;4.32;2.50;;;6.10;99.90;;;;;;5003594;28;20038;-66
2022/01/30 00:43:20;;;;;;;3.67;2.30;;;6.10;99.90;;;;;;4989215;28;20054;-67
2022/01/30 00:45:48;;;;;;;3.80;2.30;;;6.20;99.90;;;;;;4988578;28;20046;-66
2022/01/30 00:48:16;;;;;;;4.63;2.05;;;6.20;99.90;;;;;;4988929;28;20133;-67
2022/01/30 00:50:44;;;;;;;4.90;1.77;;;6.20;99.90;;;;;;4986778;28;20077;-67
2022/01/30 00:53:14;;;;;;;3.13;1.80;;;6.30;99.90;;;;;;5003241;28;20053;-66
2022/01/30 00:55:44;;;;;;;3.92;2.03;;;6.30;99.90;;;;;;4987654;28;20069;-66
2022/01/30 00:58:11;;;;;;;5.55;1.88;;;6.30;99.90;;;;;;4972018;28;20109;-67
2022/01/30 01:00:39;;;;;;;3.92;1.98;;;6.30;99.90;;;;;;4988469;28;20057;-67
2022/01/30 01:03:07;;;;;;;2.58;1.40;;;6.30;99.90;;;;;;4988933;28;20042;-66
2022/01/30 01:05:38;;;;;;;3.15;1.40;;;6.30;99.90;;;;;;4987242;28;20042;-66
2022/01/30 01:08:18;;;;;;;3.65;1.27;;;6.30;99.90;;;;;;4987714;28;20521;-66
2022/01/30 01:23:50;;;;;;;4.47;1.52;;;6.20;99.90;;;;;;4992353;28;20038;-67
2022/01/30 01:26:20;;;;;;;4.57;1.67;;;6.20;99.90;;;;;;4964061;28;20471;-66
2022/01/30 01:28:47;;;;;;;6.57;1.80;;;6.30;99.90;;;;;;4991764;28;20042;-66
2022/01/30 01:31:16;;;;;;;4.20;1.70;;;6.30;99.90;;;;;;5007250;28;20077;-66
2022/01/30 01:36:14;;;;;;;10.52;2.00;;;6.20;99.90;;;;;;4991278;28;20380;-67
2022/01/30 01:38:43;;;;;;;7.10;1.90;;;6.20;99.90;;;;;;4991785;28;20093;-66
2022/01/30 01:41:11;;;;;;;11.52;2.13;;;6.20;99.90;;;;;;4990951;28;20062;-66
2022/01/30 01:43:39;;;;;;;4.55;1.83;;;6.20;99.90;;;;;;4991057;28;20494;-67
2022/01/30 01:46:14;;;;;;;4.55;1.75;;;6.20;99.90;;;;;;4989532;28;20046;-66
2022/01/30 01:48:43;;;;;;;7.22;2.13;;;6.10;99.90;;;;;;4989945;28;20050;-67
2022/01/30 01:51:16;;;;;;;7.82;2.00;;;6.10;99.90;;;;;;4990976;28;20042;-66
2022/01/30 01:53:47;;;;;;;6.30;2.08;;;6.10;99.90;;;;;;5006501;28;20493;-66
2022/01/30 01:56:16;;;;;;;7.43;2.20;;;6.10;99.90;;;;;;4991483;28;20499;-67
2022/01/30 01:58:48;;;;;;;7.95;2.20;;;6.10;99.90;;;;;;5002148;28;20150;-67
2022/01/30 02:01:44;;;;;;;7.13;2.63;;;6.10;99.90;;;;;;4989257;28;20058;-65
2022/01/30 02:04:12;;;;;;;7.15;2.45;;;6.10;99.90;;;;;;4973800;28;20066;-66
2022/01/30 02:06:39;;;;;;;5.18;2.10;;;6.20;99.90;;;;;;4988434;28;20141;-66
2022/01/30 02:09:11;;;;;;;7.03;2.67;;;6.20;99.90;;;;;;4990999;28;20050;-67
2022/01/30 02:11:45;;;;;;;8.73;2.65;;;6.20;99.90;;;;;;4989076;28;20042;-66
2022/01/30 02:14:27;;;;;;;6.30;2.47;;;6.20;99.90;;;;;;4988690;28;20126;-66
2022/01/30 02:27:42;;;;;;;17.15;3.25;;;6.30;99.90;;;;;;5004935;28;20057;-66
2022/01/30 02:30:16;;;;;;;6.20;2.65;;;6.30;99.90;;;;;;4993850;28;20041;-66
2022/01/30 02:32:46;;;;;;;11.80;3.10;;;6.30;99.90;;;;;;4993693;28;20442;-66
2022/01/30 02:35:14;;;;;;;10.57;3.20;;;6.30;99.90;;;;;;4990207;28;20046;-66
2022/01/30 02:37:41;;;;;;;11.15;3.45;;;6.30;99.90;;;;;;5004620;28;20130;-66
2022/01/30 02:40:12;;;;;;;12.10;2.72;;;6.30;99.90;;;;;;4987399;28;20047;-66
2022/01/30 02:42:48;;;;;;;13.30;2.80;;;6.30;99.90;;;;;;4989345;28;20525;-66
2022/01/30 02:45:18;;;;;;;9.80;2.83;;;6.30;99.90;;;;;;5006393;28;20462;-66
2022/01/30 02:53:09;;;;;;;10.02;2.92;;;6.30;99.90;;;;;;5005201;28;20093;-66
2022/01/30 02:55:38;;;;;;;;;;;6.30;99.90;;;;;;5005872;28;20493;-66
2022/01/30 02:58:06;;;;;;;9.45;2.95;;;6.20;99.90;;;;;;4989336;28;19926;-66
2022/01/30 03:00:34;;;;;;;10.80;3.17;;;6.20;99.90;;;;;;4997017;28;20041;-67
2022/01/30 03:03:01;;;;;;;9.23;3.03;;;6.20;99.90;;;;;;4980327;28;20066;-66
2022/01/30 03:05:29;;;;;;;12.07;3.15;;;6.20;99.90;;;;;;5005382;28;20049;-66
2022/01/30 03:07:56;;;;;;;10.88;2.78;;;6.20;99.90;;;;;;4989322;28;20554;-66
2022/01/30 03:10:23;;;;;;;12.10;3.22;;;6.10;99.90;;;;;;4989996;28;20047;-67
2022/01/30 03:12:51;;;;;;;15.77;3.45;;;6.10;99.90;;;;;;4988596;28;20046;-65
2022/01/30 03:15:18;;;;;;;15.43;4.60;;;6.10;99.90;;;;;;4988637;28;20401;-64
2022/01/30 03:17:45;;;;;;;7.75;2.83;;;6.10;99.90;;;;;;4989268;28;20440;-65
2022/01/30 03:20:12;;;;;;;14.18;3.70;;;6.10;99.90;;;;;;5004834;28;20469;-65
2022/01/30 03:22:40;;;;;;;9.77;3.28;;;6.20;99.90;;;;;;5003988;28;20112;-65
2022/01/30 03:25:07;;;;;;;13.25;3.67;;;6.30;99.90;;;;;;5005027;28;20054;-67
2022/01/30 03:27:53;;;;;;;12.65;3.65;;;6.20;99.90;;;;;;4988479;28;20042;-67
2022/01/30 03:30:29;;;;;;;11.27;3.10;;;6.20;99.90;;;;;;4988515;28;20147;-66
2022/01/30 03:33:13;;;;;;;8.50;2.88;;;6.30;99.90;;;;;;4992480;28;20049;-67
2022/01/30 03:35:43;;;;;;;9.10;3.38;;;6.20;99.90;;;;;;4985039;28;20402;-66
2022/01/30 03:38:11;;;;;;;10.65;3.13;;;6.20;99.90;;;;;;4990967;28;20066;-66
2022/01/30 03:40:39;;;;;;;9.50;3.17;;;6.20;99.90;;;;;;4989339;28;20105;-66
2022/01/30 03:43:06;;;;;;;10.52;3.38;;;6.30;99.90;;;;;;4989642;28;20458;-66
2022/01/30 03:45:34;;;;;;;11.85;2.88;;;6.20;99.90;;;;;;5001985;28;20058;-66
2022/01/30 03:48:03;;;;;;;13.18;2.95;;;6.30;99.90;;;;;;4986625;28;20098;-66
2022/01/30 03:50:48;;;;;;;14.75;3.20;;;6.20;99.90;;;;;;4971836;28;20093;-66
2022/01/30 03:53:16;;;;;;;12.88;3.47;;;6.20;99.90;;;;;;4987519;28;20042;-66
2022/01/30 03:55:43;;;;;;;13.98;4.10;;;6.20;99.90;;;;;;4990856;28;20148;-66
2022/01/30 03:58:19;;;;;;;12.00;3.33;;;6.20;99.90;;;;;;4974334;28;20093;-66
2022/01/30 04:00:47;;;;;;;7.60;2.88;;;6.20;99.90;;;;;;5001714;28;20037;-66
2022/01/30 04:03:15;;;;;;;9.93;3.60;;;6.20;99.90;;;;;;4983104;28;20138;-67
2022/01/30 04:05:43;;;;;;;12.10;2.90;;;6.10;99.90;;;;;;4988053;28;20224;-67
2022/01/30 04:08:11;;;;;;;12.23;3.38;;;6.20;99.90;;;;;;4972157;28;20062;-67
2022/01/30 04:10:43;;;;;;;11.48;3.15;;;6.10;99.90;;;;;;5003046;28;20464;-68
2022/01/30 04:13:20;;;;;;;16.67;3.15;;;6.10;99.90;;;;;;4986779;28;20065;-68
2022/01/30 04:15:57;;;;;;;9.75;2.97;;;6.20;99.90;;;;;;5002980;28;20085;-67
2022/01/30 04:18:40;;;;;;;11.68;3.05;;;6.10;99.90;;;;;;4987704;28;20505;-68
2022/01/30 04:21:22;;;;;;;9.98;3.28;;;6.10;99.90;;;;;;5004952;28;20045;-67
2022/01/30 04:24:18;;;;;;;12.98;3.38;;;6.10;99.90;;;;;;5003081;28;20155;-66
2022/01/30 04:27:12;;;;;;;10.02;3.10;;;6.10;99.90;;;;;;5004939;28;20046;-66
2022/01/30 04:30:05;;;;;;;14.70;3.33;;;6.10;99.90;;;;;;4928897;29;20173;-66
2022/01/30 04:33:05;;;;;;;14.35;3.55;;;6.00;99.90;;;;;;4929488;29;20067;-66
2022/01/30 04:35:52;;;;;;;14.82;3.75;;;6.00;99.90;;;;;;4926006;29;20123;-65
2022/01/30 04:57:23;;;;;;;19.15;3.78;;;5.90;99.90;;;;;;4932043;29;20070;-66
2022/01/30 05:06:18;;;;;;;14.77;3.40;;;5.80;99.90;;;;;;4882018;29;20057;-66
2022/01/30 05:09:05;;;;;;;15.48;3.72;;;5.80;99.90;;;;;;4948507;28;20086;-67
2022/01/30 05:11:49;;;;;;;10.85;3.40;;;5.80;99.90;;;;;;4949283;28;20225;-67
2022/01/30 05:14:39;;;;;;;12.18;3.45;;;5.70;99.90;;;;;;4962744;28;20446;-66
2022/01/30 05:17:25;;;;;;;16.20;3.15;;;5.70;99.90;;;;;;4949209;28;20053;-65
2022/01/30 05:20:15;;;;;;;12.65;3.08;;;5.60;99.90;;;;;;4948801;28;20055;-66
2022/01/30 05:23:02;;;;;;;14.77;3.03;;;5.60;99.90;;;;;;4948295;28;20179;-64
2022/01/30 05:25:37;;;;;;;13.02;3.50;;;5.60;99.90;;;;;;4948322;28;20525;-66
2022/01/30 05:28:11;;;;;;;18.40;3.28;;;5.50;99.90;;;;;;4940033;28;20395;-66
2022/01/30 05:30:47;;;;;;;14.23;3.55;;;5.50;99.90;;;;;;4950967;28;20055;-66
2022/01/30 05:33:23;;;;;;;19.98;3.35;;;5.60;99.90;;;;;;4941217;28;20510;-65
2022/01/30 05:36:05;;;;;;;;;;;5.60;99.90;;;;;;5005765;28;20505;-66
2022/01/30 05:39:11;;;;;;;10.20;2.58;;;5.60;99.90;;;;;;4991258;28;19922;-66
2022/01/30 05:41:57;;;;;;;16.60;3.00;;;5.60;99.90;;;;;;4979014;28;20169;-66
2022/01/30 05:45:00;;;;;;;18.15;3.40;;;5.70;99.90;;;;;;4995107;28;20122;-66
2022/01/30 05:48:09;;;;;;;11.57;2.92;;;5.70;99.90;;;;;;4966698;28;20046;-67
2022/01/30 05:50:44;;;;;;;16.60;3.13;;;5.70;99.90;;;;;;4962252;28;20576;-67
2022/01/30 05:53:23;;;;;;;18.30;4.82;;;5.70;99.90;;;;;;4944983;28;20491;-67
2022/01/30 05:56:02;;;;;;;12.75;3.20;;;5.70;99.90;;;;;;4986177;28;20054;-67
2022/01/30 05:58:29;;;;;;;12.55;3.38;;;5.70;99.90;;;;;;4953227;28;20050;-67
2022/01/30 06:01:15;;;;;;;17.20;2.85;;;5.60;99.90;;;;;;4968650;28;20061;-67
2022/01/30 06:03:43;;;;;;;10.82;2.75;;;5.50;99.90;;;;;;4952970;28;20387;-66
2022/01/30 06:06:10;;;;;;;12.82;3.25;;;5.40;99.90;;;;;;4966146;28;20193;-67
2022/01/30 06:11:09;;;;;;;9.63;3.00;;;5.30;99.90;;;;;;4959863;28;20055;-67
2022/01/30 06:13:38;;;;;;;15.68;2.90;;;5.20;99.90;;;;;;4965139;28;20078;-67
2022/01/30 06:16:06;;;;;;;13.40;2.97;;;5.10;99.90;;;;;;4967660;28;20463;-67
2022/01/30 06:18:34;;;;;;;20.25;3.22;;;5.00;99.90;;;;;;4961522;28;20122;-67
2022/01/30 06:21:31;;;;;;;15.27;3.30;;;5.00;99.90;;;;;;4956571;28;20456;-66
2022/01/30 06:24:17;;;;;;;15.30;3.65;;;5.10;99.90;;;;;;4991198;28;20039;-67
2022/01/30 06:27:11;;;;;;;14.20;4.03;;;5.00;99.90;;;;;;4998124;28;20085;-68
2022/01/30 06:29:56;;;;;;;13.93;3.20;;;5.00;99.90;;;;;;4991068;28;20042;-67
2022/01/30 06:32:42;;;;;;;13.93;2.75;;;5.10;99.90;;;;;;4988046;28;20038;-66
2022/01/30 06:35:28;;;;;;;14.88;2.92;;;5.10;99.90;;;;;;4989788;28;20096;-68
2022/01/30 06:38:16;;;;;;;13.18;3.28;;;5.10;99.90;;;;;;5005798;28;20567;-67
2022/01/30 06:40:58;;;;;;;19.50;4.10;;;5.10;99.90;;;;;;4990812;28;20050;-66
2022/01/30 06:43:44;;;;;;;17.45;3.20;;;5.10;99.90;;;;;;4987238;28;20045;-67
2022/01/30 06:46:30;;;;;;;17.73;3.20;;;5.10;99.90;;;;;;4989119;28;20060;-66
2022/01/30 06:49:16;;;;;;;13.70;3.70;;;5.00;99.90;;;;;;4990624;28;20121;-67
2022/01/30 06:52:03;;;;;;;15.07;3.22;;;5.00;99.90;;;;;;4990382;28;20046;-66
2022/01/30 06:54:51;;;;;;;12.60;3.05;;;4.90;99.90;;;;;;4989260;28;20108;-67
2022/01/30 06:57:44;;;;;;;16.58;3.45;;;4.90;99.90;;;;;;4979447;28;20531;-67
2022/01/30 07:00:30;;;;;;;13.95;3.63;;;4.90;99.90;;;;;;4989941;28;20118;-67
2022/01/30 07:03:16;;;;;;;14.52;3.05;;;4.90;99.90;;;;;;4987080;28;20116;-66
2022/01/30 07:05:50;;;;;;;21.63;3.95;;;4.90;99.90;;;;;;4986334;28;20481;-66
2022/01/30 07:08:31;;;;;;;14.25;3.72;;;4.90;99.90;;;;;;4987780;28;20050;-66
2022/01/30 07:10:58;;;;;;;16.60;3.05;;;4.80;99.90;;;;;;4988787;28;20061;-66
2022/01/30 07:13:25;;;;;;;13.55;3.00;;;4.70;99.90;;;;;;4990958;28;20046;-67
2022/01/30 07:15:53;;;;;;;13.57;4.35;;;4.70;99.90;;;;;;4989476;28;20050;-66
2022/01/30 07:18:20;;;;;;;13.13;3.60;;;4.70;99.90;;;;;;4989311;28;20116;-67
2022/01/30 07:20:47;;;;;;;14.77;3.45;;;4.60;99.90;;;;;;4985962;28;21018;-66
2022/01/30 07:23:15;;;;;;;17.65;3.08;;;4.60;99.90;;;;;;4980113;28;20528;-66
2022/01/30 07:25:43;;;;;;;17.02;3.58;;;4.60;99.90;;;;;;4988269;28;20348;-67
2022/01/30 07:28:10;;;;;;;16.25;3.67;;;4.60;99.90;;;;;;4989621;28;20038;-66
2022/01/30 07:30:38;;;;;;;12.70;3.53;;;4.50;99.90;;;;;;4994680;28;20050;-67
2022/01/30 07:33:05;;;;;;;16.65;3.97;;;4.50;99.90;;;;;;4988495;28;20058;-66
2022/01/30 07:35:36;;;;;;;17.77;3.85;;;4.50;99.90;;;;;;4987853;28;20046;-65
2022/01/30 07:38:04;;;;;;;13.90;2.92;;;4.50;99.90;;;;;;4989303;28;20041;-65
2022/01/30 07:40:33;;;;;;;12.80;3.80;;;4.60;99.90;;;;;;4988261;28;20042;-66
2022/01/30 07:43:00;;;;;;;16.70;3.45;;;4.50;99.90;;;;;;4979683;28;20038;-66
2022/01/30 07:45:28;;;;;;;14.73;3.95;;;4.50;99.90;;;;;;4986135;28;20101;-67
2022/01/30 07:47:55;;;;;;;12.48;3.28;;;4.50;99.90;;;;;;4979412;28;20043;-66
2022/01/30 07:50:22;;;;;;;16.80;2.88;;;4.50;99.90;;;;;;4987085;28;20039;-66
2022/01/30 07:52:50;;;;;;;15.27;3.30;;;4.50;99.90;;;;;;4988384;28;20487;-67
2022/01/30 07:55:18;;;;;;;20.58;3.63;;;4.50;99.90;;;;;;5003830;28;20084;-67
2022/01/30 07:57:45;;;;;;;19.13;3.75;;;4.50;99.90;;;;;;4987303;28;20802;-66
2022/01/30 08:00:13;;;;;;;19.88;4.30;;;4.50;99.90;;;;;;4988460;28;20438;-67
2022/01/30 08:02:41;;;;;;;12.27;2.85;;;4.60;99.90;;;;;;4988465;28;20457;-67
2022/01/30 08:05:09;;;;;;;20.08;3.90;;;4.60;99.90;;;;;;5004951;28;20164;-67
2022/01/30 08:07:37;;;;;;;10.68;3.47;;;4.60;99.90;;;;;;4994188;28;20559;-66
2022/01/30 08:10:04;;;;;;;15.50;3.45;;;4.70;99.90;;;;;;4992128;28;20504;-68
2022/01/30 08:12:32;;;;;;;18.50;4.18;;;4.70;99.90;;;;;;4995696;28;20046;-68
2022/01/30 08:14:59;;;;;;;27.00;4.22;;;4.70;99.90;;;;;;4990377;28;20046;-68
2022/01/30 08:17:26;;;;;;;17.35;3.70;;;4.70;99.90;;;;;;4989382;28;20042;-68
2022/01/30 08:19:53;;;;;;;18.90;4.43;;;4.70;99.90;;;;;;4997705;28;20049;-67
2022/01/30 08:22:21;;;;;;;20.42;4.05;;;4.80;99.90;;;;;;4988885;28;20458;-67
2022/01/30 08:24:48;;;;;;;16.02;3.70;;;4.80;99.90;;;;;;4989971;28;20501;-67
2022/01/30 08:27:15;;;;;;;15.98;4.07;;;4.90;99.90;;;;;;4986612;28;20623;-66
2022/01/30 08:29:42;;;;;;;18.33;3.08;;;4.90;99.90;;;;;;4980207;28;20820;-66
2022/01/30 08:32:11;;;;;;;13.90;4.10;;;5.00;99.90;;;;;;4986526;28;20057;-68
2022/01/30 08:34:42;;;;;;;18.48;3.80;;;5.00;99.90;;;;;;4987250;28;20108;-68
2022/01/30 08:37:10;;;;;;;16.90;3.70;;;5.10;99.90;;;;;;4988033;28;20423;-67
2022/01/30 08:39:37;;;;;;;15.48;3.05;;;5.10;99.90;;;;;;4988951;28;20297;-66
2022/01/30 08:42:05;;;;;;;18.65;3.63;;;5.10;99.90;;;;;;4988751;28;20073;-67
2022/01/30 08:44:32;;;;;;;17.67;4.13;;;5.20;99.90;;;;;;4989042;28;20046;-67
2022/01/30 08:46:59;;;;;;;17.63;3.08;;;5.30;99.90;;;;;;4989389;28;20054;-67
2022/01/30 08:49:27;;;;;;;14.20;3.38;;;5.40;99.90;;;;;;4994859;28;20077;-67
2022/01/30 08:51:54;;;;;;;17.45;3.47;;;5.50;99.90;;;;;;4989372;28;20042;-68
2022/01/30 08:54:21;;;;;;;10.38;2.58;;;5.70;99.90;;;;;;4990004;28;20061;-65
2022/01/30 08:56:48;;;;;;;13.52;3.80;;;5.70;99.90;;;;;;4989340;28;20061;-66
2022/01/30 08:59:16;;;;;;;16.73;3.25;;;5.70;99.90;;;;;;5004229;28;20049;-69
2022/01/30 09:01:43;;;;;;;14.68;3.58;;;5.70;99.90;;;;;;4988999;28;20811;-67
2022/01/30 09:04:11;;;;;;;11.88;4.15;;;5.80;99.90;;;;;;4989516;28;20034;-66
2022/01/30 09:06:38;;;;;;;15.32;3.53;;;5.80;99.90;;;;;;4988863;28;20088;-66
2022/01/30 09:09:07;;;;;;;19.48;3.22;;;5.80;99.90;;;;;;4990477;28;20141;-68
2022/01/30 09:11:36;;;;;;;11.60;3.03;;;5.80;99.90;;;;;;4988668;28;20405;-68
2022/01/30 09:14:04;;;;;;;17.50;2.97;;;5.70;99.90;;;;;;4987853;28;20071;-68
2022/01/30 09:16:31;;;;;;;14.52;3.03;;;5.70;99.90;;;;;;4988994;28;20070;-67
2022/01/30 09:18:59;;;;;;;15.38;2.97;;;5.70;99.90;;;;;;4986342;28;20129;-67
2022/01/30 09:21:28;;;;;;;15.73;3.38;;;5.80;99.90;;;;;;4979761;28;20046;-66
2022/01/30 09:23:56;;;;;;;16.05;3.33;;;5.80;99.90;;;;;;5001417;28;20047;-68
2022/01/30 09:26:23;;;;;;;15.95;3.47;;;5.80;99.90;;;;;;4988295;28;20042;-67
2022/01/30 09:28:51;;;;;;;13.45;3.13;;;5.80;99.90;;;;;;4988219;28;20054;-66
2022/01/30 09:31:18;;;;;;;16.10;3.45;;;5.80;99.90;;;;;;4987603;28;20051;-67
2022/01/30 09:33:46;;;;;;;13.70;2.42;;;5.70;99.90;;;;;;4985996;28;20050;-67
2022/01/30 09:36:14;;;;;;;12.73;3.45;;;5.50;99.90;;;;;;4989904;28;20053;-67
2022/01/30 09:38:46;;;;;;;18.48;3.25;;;5.60;99.90;;;;;;4983115;28;20046;-67
2022/01/30 09:41:15;;;;;;;11.50;2.60;;;5.50;99.90;;;;;;4991234;28;20146;-67
2022/01/30 09:43:45;;;;;;;11.93;2.60;;;5.50;99.90;;;;;;4991484;28;20042;-67
2022/01/30 09:46:15;;;;;;;13.52;3.10;;;5.50;99.90;;;;;;4991751;28;20042;-67
2022/01/30 09:48:43;;;;;;;16.75;3.72;;;5.40;99.90;;;;;;4992026;28;20054;-68
2022/01/30 09:51:10;;;;;;;12.85;3.63;;;5.40;99.90;;;;;;4991926;28;20096;-66
2022/01/30 09:53:38;;;;;;;16.48;3.58;;;5.30;99.90;;;;;;4990092;28;20042;-69
2022/01/30 09:56:06;;;;;;;16.77;3.50;;;5.40;99.90;;;;;;4991950;28;20042;-67
2022/01/30 09:58:33;;;;;;;15.98;3.20;;;5.50;99.90;;;;;;4992473;28;20050;-68
2022/01/30 10:01:01;;;;;;;16.67;3.30;;;5.50;99.90;;;;;;5006860;28;20073;-66
2022/01/30 10:03:28;;;;;;;12.60;4.20;;;5.60;99.90;;;;;;4992328;28;20038;-67
2022/01/30 10:06:19;;;;;;;16.48;3.67;;;5.60;99.90;;;;;;4992919;28;20042;-67
2022/01/30 10:08:52;;;;;;;12.48;2.88;;;5.60;99.90;;;;;;4995602;28;20034;-67
2022/01/30 10:11:31;;;;;;;8.15;3.45;;;5.60;99.90;;;;;;4984369;28;20129;-67
2022/01/30 10:14:11;;;;;;;14.05;3.20;;;5.60;99.90;;;;;;4993031;28;20046;-67
2022/01/30 10:16:44;;;;;;;10.15;3.08;;;5.70;99.90;;;;;;4991279;28;20687;-67
2022/01/30 10:19:23;;;;;;;16.98;3.35;;;5.70;99.90;;;;;;4997054;28;20130;-67
2022/01/30 10:22:08;;;;;;;11.48;3.45;;;5.70;99.90;;;;;;4991348;28;20042;-67
2022/01/30 10:24:42;;;;;;;15.45;4.25;;;5.70;99.90;;;;;;4985644;28;20519;-65
2022/01/30 10:27:27;;;;;;;17.35;2.92;;;5.70;99.90;;;;;;4992042;28;20485;-66
2022/01/30 10:29:58;;;;;;;13.18;3.00;;;5.60;99.90;;;;;;4993294;28;20058;-69
2022/01/30 10:32:26;;;;;;;12.18;2.90;;;5.60;99.90;;;;;;4990701;28;20053;-67
2022/01/30 10:35:07;;;;;;;12.73;3.33;;;5.80;99.90;;;;;;4981992;28;20051;-68
2022/01/30 10:37:39;;;;;;;20.13;2.93;;;5.80;99.90;;;;;;4986320;28;20628;-67
2022/01/30 10:40:17;;;;;;;12.33;3.57;;;5.80;99.90;;;;;;4991669;28;20296;-67
2022/01/30 10:42:46;;;;;;;16.50;3.45;;;5.70;99.90;;;;;;4991143;28;20282;-68
2022/01/30 10:45:33;;;;;;;16.35;3.97;;;5.70;99.90;;;;;;4991434;28;20039;-67
2022/01/30 10:48:12;;;;;;;13.05;3.17;;;5.60;99.90;;;;;;4991054;28;20046;-68
2022/01/30 10:50:42;;;;;;;18.17;3.45;;;5.60;99.90;;;;;;4990689;28;20138;-67
2022/01/30 10:53:22;;;;;;;15.18;3.35;;;5.60;99.90;;;;;;4990944;28;20080;-68
2022/01/30 10:55:50;;;;;;;10.00;2.80;;;5.60;99.90;;;;;;4990249;28;20060;-68
2022/01/30 10:58:22;;;;;;;9.75;2.70;;;5.60;99.90;;;;;;4977963;28;20057;-67
2022/01/30 11:00:56;;;;;;;;;;;5.60;99.90;;;;;;4987665;28;20046;-66
2022/01/30 11:03:45;;;;;;;9.07;2.72;;;5.60;99.90;;;;;;4977615;28;19957;-66
2022/01/30 11:06:14;;;;;;;13.18;2.75;;;5.60;99.90;;;;;;4981782;28;20129;-68
2022/01/30 11:08:46;;;;;;;12.10;2.92;;;5.60;99.90;;;;;;4988809;28;20046;-65
2022/01/30 11:11:26;;;;;;;;;;;5.60;99.90;;;;;;4988916;28;20050;-67
2022/01/30 11:14:14;;;;;;;14.48;2.92;;;5.50;99.90;;;;;;4984695;28;20021;-66
2022/01/30 11:47:08;;;;;;;12.68;3.42;;;5.60;99.90;;;;;;4975668;28;20089;-67
2022/01/30 11:49:55;;;;;;;11.98;3.13;;;5.50;99.90;;;;;;4986182;28;20046;-67
2022/01/30 11:52:49;;;;;;;15.82;3.35;;;5.60;99.90;;;;;;4985968;28;20047;-67
2022/01/30 11:55:41;;;;;;;18.17;3.72;;;5.70;99.90;;;;;;4975819;28;20039;-67
2022/01/30 11:58:46;;;;;;;12.90;2.80;;;5.60;99.90;;;;;;4988558;28;20038;-67
2022/01/30 12:01:25;;;;;;;12.63;3.42;;;5.60;99.90;;;;;;4989158;28;20042;-67
2022/01/30 12:04:01;;;;;;;14.13;3.42;;;5.60;99.90;;;;;;4985580;28;20544;-67
2022/01/30 12:06:34;;;;;;;18.60;3.75;;;5.60;99.90;;;;;;4987132;28;20130;-67
2022/01/30 12:09:22;;;;;;;13.68;3.75;;;5.70;99.90;;;;;;4989751;28;20035;-66
2022/01/30 12:11:54;;;;;;;12.85;3.10;;;5.80;99.90;;;;;;4988100;28;20133;-66
2022/01/30 12:14:21;;;;;;;17.13;3.58;;;5.70;99.90;;;;;;4986499;28;20047;-66
2022/01/30 12:16:56;;;;;;;23.88;4.10;;;5.80;99.90;;;;;;4993210;28;20166;-66
2022/01/30 12:19:43;;;;;;;18.98;4.45;;;5.80;99.90;;;;;;4985591;28;20046;-67
2022/01/30 12:22:16;;;;;;;16.48;4.40;;;6.00;99.90;;;;;;4987357;28;20873;-67
2022/01/30 12:24:45;;;;;;;17.52;3.75;;;6.10;99.90;;;;;;4987941;28;20416;-65
2022/01/30 12:27:12;;;;;;;14.80;3.47;;;6.00;99.90;;;;;;4955309;28;20082;-65
2022/01/30 12:29:50;;;;;;;15.00;3.45;;;6.10;99.90;;;;;;4989262;28;20057;-67
2022/01/30 12:32:24;;;;;;;15.88;3.25;;;6.70;99.90;;;;;;4989138;28;20072;-65
2022/01/30 12:34:54;;;;;;;12.57;3.38;;;7.00;99.90;;;;;;4986526;28;20052;-66
2022/01/30 12:37:25;;;;;;;10.45;2.92;;;6.80;99.90;;;;;;4983102;28;20516;-66
2022/01/30 12:39:54;;;;;;;15.32;3.50;;;6.50;99.90;;;;;;4983668;28;20043;-67
2022/01/30 12:42:32;;;;;;;13.57;3.85;;;6.50;99.90;;;;;;4986878;28;20482;-66
2022/01/30 12:45:00;;;;;;;19.63;3.50;;;6.60;99.90;;;;;;4987443;28;20042;-67
2022/01/30 12:47:28;;;;;;;15.05;3.45;;;6.50;99.90;;;;;;4988659;28;20054;-66
2022/01/30 12:49:59;;;;;;;13.35;3.75;;;6.30;99.90;;;;;;4988040;28;20042;-65
2022/01/30 12:52:35;;;;;;;17.77;4.13;;;6.20;99.90;;;;;;4981141;28;20089;-65
2022/01/30 12:55:12;;;;;;;12.23;2.58;;;6.00;99.90;;;;;;4988033;28;20051;-68
2022/01/30 12:57:40;;;;;;;14.68;2.95;;;6.00;99.90;;;;;;4989329;28;20141;-69
2022/01/30 13:00:10;;;;;;;14.00;3.00;;;6.10;99.90;;;;;;4986929;28;20502;-67
2022/01/30 13:02:37;;;;;;;15.57;3.33;;;6.20;99.90;;;;;;4988977;28;20053;-66
2022/01/30 13:05:10;;;;;;;12.85;3.72;;;6.30;99.90;;;;;;5002468;28;20060;-66
2022/01/30 13:07:38;;;;;;;15.65;2.92;;;6.30;99.90;;;;;;4977177;28;20050;-69
2022/01/30 13:10:12;;;;;;;14.13;3.50;;;6.40;99.90;;;;;;4992075;28;20050;-67
2022/01/30 13:12:44;;;;;;;15.38;3.20;;;6.50;99.90;;;;;;4978886;28;20049;-66
2022/01/30 13:15:15;;;;;;;11.73;2.78;;;6.40;99.90;;;;;;4992220;28;20133;-66
2022/01/30 13:17:42;;;;;;;17.70;3.17;;;6.40;99.90;;;;;;4992891;28;20834;-66
2022/01/30 13:20:12;;;;;;;12.45;3.17;;;6.40;99.90;;;;;;4992420;28;20042;-66
2022/01/30 13:22:43;;;;;;;16.35;3.20;;;6.30;99.90;;;;;;4990038;28;20043;-67
2022/01/30 13:25:17;;;;;;;20.15;5.75;;;6.40;99.90;;;;;;4985080;28;20046;-66
2022/01/30 13:27:49;;;;;;;16.15;3.67;;;6.40;99.90;;;;;;4989327;28;20053;-67
2022/01/30 13:30:21;;;;;;;11.13;2.97;;;6.50;99.90;;;;;;4991553;28;20120;-67
2022/01/30 13:32:50;;;;;;;19.00;3.67;;;6.70;99.90;;;;;;4992714;28;20069;-68
2022/01/30 13:35:19;;;;;;;16.17;3.63;;;7.70;99.90;;;;;;4992351;28;20058;-65
2022/01/30 13:37:47;;;;;;;12.07;3.22;;;8.30;99.90;;;;;;4987106;28;20046;-67
2022/01/30 13:42:57;;;;;;;15.05;3.47;;;7.30;99.90;;;;;;4989881;28;20093;-66
2022/01/30 13:48:16;;;;;;;10.30;3.58;;;6.60;99.90;;;;;;4991052;28;20133;-65
2022/01/30 13:50:48;;;;;;;13.82;3.25;;;6.80;99.90;;;;;;4990984;28;20134;-65
2022/01/30 13:53:21;;;;;;;19.10;4.93;;;7.00;99.90;;;;;;4982049;28;20081;-65
2022/01/30 13:55:58;;;;;;;16.98;3.17;;;7.20;99.90;;;;;;4991481;28;20051;-67
2022/01/30 13:58:47;;;;;;;15.27;3.65;;;8.00;99.90;;;;;;4990029;28;20046;-65
2022/01/30 14:01:22;;;;;;;17.38;3.53;;;8.60;99.90;;;;;;4991432;28;20378;-67
2022/01/30 14:03:50;;;;;;;17.75;3.67;;;8.30;99.90;;;;;;5005999;28;20110;-66
2022/01/30 14:06:26;;;;;;;12.95;3.28;;;7.80;99.90;;;;;;4988848;28;20054;-67
2022/01/30 14:08:57;;;;;;;16.15;4.00;;;7.50;99.90;;;;;;4981686;28;20104;-67
2022/01/30 14:11:30;;;;;;;14.95;3.10;;;7.10;99.90;;;;;;4990112;28;20060;-68
2022/01/30 14:14:09;;;;;;;11.25;3.38;;;6.90;99.90;;;;;;4991746;28;20094;-68
2022/01/30 14:16:43;;;;;;;16.85;3.55;;;6.50;99.90;;;;;;4981723;28;20050;-66
2022/01/30 14:19:18;;;;;;;17.45;3.58;;;6.30;99.90;;;;;;5006870;28;20034;-66
2022/01/30 14:21:46;;;;;;;17.45;3.55;;;6.10;99.90;;;;;;4991103;28;20034;-67
2022/01/30 14:24:19;;;;;;;17.50;4.07;;;6.10;99.90;;;;;;4989712;28;20053;-66
2022/01/30 14:26:47;;;;;;;14.27;3.25;;;6.00;99.90;;;;;;4991652;28;20047;-66
2022/01/30 14:29:21;;;;;;;16.02;3.20;;;7.20;99.90;;;;;;4990210;28;20050;-66
2022/01/30 14:31:48;;;;;;;15.30;3.22;;;7.70;99.90;;;;;;4989064;28;20061;-66
2022/01/30 14:34:16;;;;;;;13.95;3.47;;;7.70;99.90;;;;;;4991352;28;20501;-66
2022/01/30 14:36:43;;;;;;;15.63;3.25;;;7.40;99.90;;;;;;4988772;28;20526;-66
2022/01/30 14:39:11;;;;;;;15.98;3.58;;;6.80;99.90;;;;;;4987416;28;20501;-65
2022/01/30 14:41:39;;;;;;;11.88;3.30;;;6.40;99.90;;;;;;4976539;28;20049;-67
2022/01/30 14:44:07;;;;;;;14.45;3.45;;;6.10;99.90;;;;;;4989469;28;20050;-67
2022/01/30 14:46:34;;;;;;;17.00;3.70;;;6.00;99.90;;;;;;4990680;28;20057;-65
2022/01/30 14:49:02;;;;;;;16.25;3.20;;;6.00;99.90;;;;;;4989430;28;20449;-67
2022/01/30 14:51:29;;;;;;;16.63;3.65;;;5.90;99.90;;;;;;4984602;28;20042;-67
2022/01/30 14:53:57;;;;;;;15.25;3.78;;;5.80;99.90;;;;;;4996482;28;20068;-66
2022/01/30 14:56:24;;;;;;;18.48;3.63;;;5.70;99.90;;;;;;4991876;28;20042;-68
2022/01/30 14:58:52;;;;;;;14.10;3.72;;;5.50;99.90;;;;;;4988333;28;20041;-67